sensor_id;sensor_type;location;lat;lon;timestamp;temperature;humidity
10660;DHT22;5378;53.206;13.316;2022-09-12T00:01:55;13.80;99.90
10660;DHT22;5378;53.206;13.316;2022-09-12T00:04:43;13.70;99.90
10660;DHT22;5378;53.206;13.316;2022-09-12T00:07:31;13.80;99.90
10660;DHT22;5378;53.206;13.316;2022-09-12T00:10:17;13.80;99.90
10660;DHT22;5378;53.206;13.316;2022-09-12T00:13:05;13.80;99.90
10660;DHT22;5378;53.206;13.316;2022-09-12T00:15:52;13.90;99.90
10660;DHT22;5378;53.206;13.316;2022-09-12T00:18:40;13.80;99.90
10660;DHT22;5378;53.206;13.316;2022-09-12T00:21:28;13.80;99.90
10660;DHT22;5378;53.206;13.316;2022-09-12T00:24:16;13.80;99.90
10660;DHT22;5378;53.206;13.316;2022-09-12T00:27:03;13.70;99.90
10660;DHT22;5378;53.206;13.316;2022-09-12T00:29:50;13.70;99.90
10660;DHT22;5378;53.206;13.316;2022-09-12T00:32:37;13.70;99.90
10660;DHT22;5378;53.206;13.316;2022-09-12T00:35:25;13.50;99.90
10660;DHT22;5378;53.206;13.316;2022-09-12T00:38:14;13.50;99.90
10660;DHT22;5378;53.206;13.316;2022-09-12T00:41:02;13.40;99.90
10660;DHT22;5378;53.206;13.316;2022-09-12T00:43:50;13.40;99.90
10660;DHT22;5378;53.206;13.316;2022-09-12T00:46:41;13.50;99.90
10660;DHT22;5378;53.206;13.316;2022-09-12T00:49:32;13.50;99.90
10660;DHT22;5378;53.206;13.316;2022-09-12T00:52:24;13.60;99.90
10660;DHT22;5378;53.206;13.316;2022-09-12T00:55:16;13.60;99.90
10660;DHT22;5378;53.206;13.316;2022-09-12T00:58:09;13.60;99.90
10660;DHT22;5378;53.206;13.316;2022-09-12T01:00:58;13.70;99.90
10660;DHT22;5378;53.206;13.316;2022-09-12T01:03:46;13.80;99.90
10660;DHT22;5378;53.206;13.316;2022-09-12T01:06:35;13.90;99.90
10660;DHT22;5378;53.206;13.316;2022-09-12T01:09:23;14.00;99.90
10660;DHT22;5378;53.206;13.316;2022-09-12T01:12:14;14.10;99.90
10660;DHT22;5378;53.206;13.316;2022-09-12T01:15:01;14.00;99.90
10660;DHT22;5378;53.206;13.316;2022-09-12T01:18:01;14.00;99.90
10660;DHT22;5378;53.206;13.316;2022-09-12T01:21:05;14.10;99.90
10660;DHT22;5378;53.206;13.316;2022-09-12T01:27:31;14.10;99.90
10660;DHT22;5378;53.206;13.316;2022-09-12T01:30:37;14.10;99.90
10660;DHT22;5378;53.206;13.316;2022-09-12T01:33:35;14.10;99.90
10660;DHT22;5378;53.206;13.316;2022-09-12T01:36:35;14.10;99.90
10660;DHT22;5378;53.206;13.316;2022-09-12T01:39:28;14.20;99.90
10660;DHT22;5378;53.206;13.316;2022-09-12T01:42:22;14.20;99.90
10660;DHT22;5378;53.206;13.316;2022-09-12T01:45:17;14.20;99.90
10660;DHT22;5378;53.206;13.316;2022-09-12T01:48:12;14.30;99.90
10660;DHT22;5378;53.206;13.316;2022-09-12T01:51:05;14.30;99.90
10660;DHT22;5378;53.206;13.316;2022-09-12T01:53:57;14.30;99.90
10660;DHT22;5378;53.206;13.316;2022-09-12T01:56:52;14.30;99.90
10660;DHT22;5378;53.206;13.316;2022-09-12T01:59:45;14.30;99.90
10660;DHT22;5378;53.206;13.316;2022-09-12T02:02:37;14.30;99.90
10660;DHT22;5378;53.206;13.316;2022-09-12T02:05:28;14.30;99.90
10660;DHT22;5378;53.206;13.316;2022-09-12T02:08:19;14.30;99.90
10660;DHT22;5378;53.206;13.316;2022-09-12T02:11:10;14.40;99.90
10660;DHT22;5378;53.206;13.316;2022-09-12T02:14:00;14.30;99.90
10660;DHT22;5378;53.206;13.316;2022-09-12T02:16:52;14.20;99.90
10660;DHT22;5378;53.206;13.316;2022-09-12T02:19:44;14.20;99.90
10660;DHT22;5378;53.206;13.316;2022-09-12T02:22:35;14.20;99.90
10660;DHT22;5378;53.206;13.316;2022-09-12T02:25:24;14.10;99.90
10660;DHT22;5378;53.206;13.316;2022-09-12T02:28:15;14.10;99.90
10660;DHT22;5378;53.206;13.316;2022-09-12T02:31:10;14.00;99.90
10660;DHT22;5378;53.206;13.316;2022-09-12T02:34:08;13.90;99.90
10660;DHT22;5378;53.206;13.316;2022-09-12T02:37:04;13.80;99.90
10660;DHT22;5378;53.206;13.316;2022-09-12T02:39:55;13.70;99.90
10660;DHT22;5378;53.206;13.316;2022-09-12T02:42:43;13.70;99.90
10660;DHT22;5378;53.206;13.316;2022-09-12T02:45:30;13.70;99.90
10660;DHT22;5378;53.206;13.316;2022-09-12T02:48:21;13.70;99.90
10660;DHT22;5378;53.206;13.316;2022-09-12T02:51:10;13.70;99.90
10660;DHT22;5378;53.206;13.316;2022-09-12T02:53:58;13.70;99.90
10660;DHT22;5378;53.206;13.316;2022-09-12T02:56:46;13.60;99.90
10660;DHT22;5378;53.206;13.316;2022-09-12T02:59:33;13.60;99.90
10660;DHT22;5378;53.206;13.316;2022-09-12T03:02:39;13.60;99.90
10660;DHT22;5378;53.206;13.316;2022-09-12T03:05:31;13.70;99.90
10660;DHT22;5378;53.206;13.316;2022-09-12T03:08:45;13.90;99.90
10660;DHT22;5378;53.206;13.316;2022-09-12T03:11:53;13.90;99.90
10660;DHT22;5378;53.206;13.316;2022-09-12T03:14:56;13.90;99.90
10660;DHT22;5378;53.206;13.316;2022-09-12T03:17:57;14.00;99.90
10660;DHT22;5378;53.206;13.316;2022-09-12T03:20:52;13.90;99.90
10660;DHT22;5378;53.206;13.316;2022-09-12T03:23:45;14.10;99.90
10660;DHT22;5378;53.206;13.316;2022-09-12T03:26:41;13.90;99.90
10660;DHT22;5378;53.206;13.316;2022-09-12T03:29:30;13.90;99.90
10660;DHT22;5378;53.206;13.316;2022-09-12T03:32:17;13.90;99.90
10660;DHT22;5378;53.206;13.316;2022-09-12T03:35:05;13.80;99.90
10660;DHT22;5378;53.206;13.316;2022-09-12T03:37:52;13.90;99.90
10660;DHT22;5378;53.206;13.316;2022-09-12T03:40:40;13.90;99.90
10660;DHT22;5378;53.206;13.316;2022-09-12T03:43:28;13.90;99.90
10660;DHT22;5378;53.206;13.316;2022-09-12T03:46:16;14.00;99.90
10660;DHT22;5378;53.206;13.316;2022-09-12T03:49:03;14.00;99.90
10660;DHT22;5378;53.206;13.316;2022-09-12T03:51:51;14.00;99.90
10660;DHT22;5378;53.206;13.316;2022-09-12T03:54:38;14.00;99.90
10660;DHT22;5378;53.206;13.316;2022-09-12T03:57:25;14.00;99.90
10660;DHT22;5378;53.206;13.316;2022-09-12T04:00:12;14.00;99.90
10660;DHT22;5378;53.206;13.316;2022-09-12T04:03:04;14.10;99.90
10660;DHT22;5378;53.206;13.316;2022-09-12T04:05:50;14.10;99.90
10660;DHT22;5378;53.206;13.316;2022-09-12T04:08:38;14.10;99.90
10660;DHT22;5378;53.206;13.316;2022-09-12T04:11:25;14.10;99.90
10660;DHT22;5378;53.206;13.316;2022-09-12T04:14:12;14.10;99.90
10660;DHT22;5378;53.206;13.316;2022-09-12T04:16:59;14.00;99.90
10660;DHT22;5378;53.206;13.316;2022-09-12T04:19:48;14.00;99.90
10660;DHT22;5378;53.206;13.316;2022-09-12T04:22:35;14.10;99.90
10660;DHT22;5378;53.206;13.316;2022-09-12T04:25:22;14.10;99.90
10660;DHT22;5378;53.206;13.316;2022-09-12T04:28:09;14.00;99.90
10660;DHT22;5378;53.206;13.316;2022-09-12T04:31:01;14.00;99.90
10660;DHT22;5378;53.206;13.316;2022-09-12T04:33:54;13.90;99.90
10660;DHT22;5378;53.206;13.316;2022-09-12T04:36:43;14.00;99.90
10660;DHT22;5378;53.206;13.316;2022-09-12T04:39:30;14.00;99.90
10660;DHT22;5378;53.206;13.316;2022-09-12T04:42:17;14.00;99.90
10660;DHT22;5378;53.206;13.316;2022-09-12T04:45:05;14.00;99.90
10660;DHT22;5378;53.206;13.316;2022-09-12T04:47:52;14.00;99.90
10660;DHT22;5378;53.206;13.316;2022-09-12T04:50:40;14.00;99.90
10660;DHT22;5378;53.206;13.316;2022-09-12T04:53:28;14.00;99.90
10660;DHT22;5378;53.206;13.316;2022-09-12T04:56:16;14.00;99.90
10660;DHT22;5378;53.206;13.316;2022-09-12T04:59:04;14.00;99.90
10660;DHT22;5378;53.206;13.316;2022-09-12T05:01:51;14.00;99.90
10660;DHT22;5378;53.206;13.316;2022-09-12T05:04:39;14.00;99.90
10660;DHT22;5378;53.206;13.316;2022-09-12T05:07:26;13.90;99.90
10660;DHT22;5378;53.206;13.316;2022-09-12T05:10:14;13.90;99.90
10660;DHT22;5378;53.206;13.316;2022-09-12T05:13:03;14.00;99.90
10660;DHT22;5378;53.206;13.316;2022-09-12T05:15:53;14.10;99.90
10660;DHT22;5378;53.206;13.316;2022-09-12T05:18:41;14.10;99.90
10660;DHT22;5378;53.206;13.316;2022-09-12T05:21:29;14.20;99.90
10660;DHT22;5378;53.206;13.316;2022-09-12T05:24:16;14.20;99.90
10660;DHT22;5378;53.206;13.316;2022-09-12T05:27:05;14.20;99.90
10660;DHT22;5378;53.206;13.316;2022-09-12T05:29:52;14.20;99.90
10660;DHT22;5378;53.206;13.316;2022-09-12T05:32:39;14.30;99.90
10660;DHT22;5378;53.206;13.316;2022-09-12T05:35:26;14.40;99.90
10660;DHT22;5378;53.206;13.316;2022-09-12T05:38:13;14.40;99.90
10660;DHT22;5378;53.206;13.316;2022-09-12T05:41:04;14.50;99.90
10660;DHT22;5378;53.206;13.316;2022-09-12T05:43:55;14.50;99.90
10660;DHT22;5378;53.206;13.316;2022-09-12T05:46:43;14.60;99.90
10660;DHT22;5378;53.206;13.316;2022-09-12T05:49:31;14.60;99.90
10660;DHT22;5378;53.206;13.316;2022-09-12T05:52:18;14.60;99.90
10660;DHT22;5378;53.206;13.316;2022-09-12T05:55:06;14.70;99.90
10660;DHT22;5378;53.206;13.316;2022-09-12T05:57:53;14.80;99.90
10660;DHT22;5378;53.206;13.316;2022-09-12T06:00:42;14.80;99.90
10660;DHT22;5378;53.206;13.316;2022-09-12T06:03:30;14.80;99.90
10660;DHT22;5378;53.206;13.316;2022-09-12T06:06:19;14.90;99.90
10660;DHT22;5378;53.206;13.316;2022-09-12T06:09:07;14.90;99.90
10660;DHT22;5378;53.206;13.316;2022-09-12T06:11:54;15.00;99.90
10660;DHT22;5378;53.206;13.316;2022-09-12T06:14:42;15.20;99.90
10660;DHT22;5378;53.206;13.316;2022-09-12T06:17:30;15.20;99.90
10660;DHT22;5378;53.206;13.316;2022-09-12T06:20:18;15.30;99.90
10660;DHT22;5378;53.206;13.316;2022-09-12T06:23:05;15.40;99.90
10660;DHT22;5378;53.206;13.316;2022-09-12T06:25:52;15.40;99.90
10660;DHT22;5378;53.206;13.316;2022-09-12T06:28:41;15.50;99.90
10660;DHT22;5378;53.206;13.316;2022-09-12T06:31:31;15.60;99.90
10660;DHT22;5378;53.206;13.316;2022-09-12T06:34:20;15.80;99.90
10660;DHT22;5378;53.206;13.316;2022-09-12T06:37:07;16.00;99.90
10660;DHT22;5378;53.206;13.316;2022-09-12T06:39:54;16.10;99.90
10660;DHT22;5378;53.206;13.316;2022-09-12T06:42:42;16.20;99.90
10660;DHT22;5378;53.206;13.316;2022-09-12T06:45:31;16.40;99.90
10660;DHT22;5378;53.206;13.316;2022-09-12T06:48:18;16.50;99.90
10660;DHT22;5378;53.206;13.316;2022-09-12T06:51:10;16.50;99.90
10660;DHT22;5378;53.206;13.316;2022-09-12T06:53:58;16.60;99.90
10660;DHT22;5378;53.206;13.316;2022-09-12T06:56:45;15.20;99.90
10660;DHT22;5378;53.206;13.316;2022-09-12T06:59:32;16.70;99.90
10660;DHT22;5378;53.206;13.316;2022-09-12T07:02:19;16.70;99.90
10660;DHT22;5378;53.206;13.316;2022-09-12T07:05:07;19.50;99.90
10660;DHT22;5378;53.206;13.316;2022-09-12T07:07:56;16.70;99.90
10660;DHT22;5378;53.206;13.316;2022-09-12T07:10:44;16.70;99.90
10660;DHT22;5378;53.206;13.316;2022-09-12T07:13:31;16.80;99.90
10660;DHT22;5378;53.206;13.316;2022-09-12T07:16:18;17.00;99.90
10660;DHT22;5378;53.206;13.316;2022-09-12T07:19:07;17.30;99.90
10660;DHT22;5378;53.206;13.316;2022-09-12T07:21:54;17.50;99.90
10660;DHT22;5378;53.206;13.316;2022-09-12T07:24:44;17.40;99.90
10660;DHT22;5378;53.206;13.316;2022-09-12T07:27:31;16.90;99.90
10660;DHT22;5378;53.206;13.316;2022-09-12T07:30:18;16.70;99.90
10660;DHT22;5378;53.206;13.316;2022-09-12T07:33:05;16.80;99.90
10660;DHT22;5378;53.206;13.316;2022-09-12T07:35:54;17.00;99.90
10660;DHT22;5378;53.206;13.316;2022-09-12T07:38:41;16.90;99.90
10660;DHT22;5378;53.206;13.316;2022-09-12T07:41:31;17.00;99.90
10660;DHT22;5378;53.206;13.316;2022-09-12T07:44:18;17.20;99.90
10660;DHT22;5378;53.206;13.316;2022-09-12T07:47:06;17.80;99.90
10660;DHT22;5378;53.206;13.316;2022-09-12T07:49:53;18.30;99.90
10660;DHT22;5378;53.206;13.316;2022-09-12T07:52:41;18.70;99.90
10660;DHT22;5378;53.206;13.316;2022-09-12T07:55:28;19.00;99.90
10660;DHT22;5378;53.206;13.316;2022-09-12T07:58:17;19.30;99.90
10660;DHT22;5378;53.206;13.316;2022-09-12T08:01:05;19.40;99.90
10660;DHT22;5378;53.206;13.316;2022-09-12T08:03:55;19.60;99.90
10660;DHT22;5378;53.206;13.316;2022-09-12T08:06:42;20.10;99.90
10660;DHT22;5378;53.206;13.316;2022-09-12T08:09:30;20.40;99.90
10660;DHT22;5378;53.206;13.316;2022-09-12T08:12:17;20.30;99.90
10660;DHT22;5378;53.206;13.316;2022-09-12T08:15:07;20.20;99.90
10660;DHT22;5378;53.206;13.316;2022-09-12T08:17:54;20.20;99.90
10660;DHT22;5378;53.206;13.316;2022-09-12T08:20:41;20.50;99.90
10660;DHT22;5378;53.206;13.316;2022-09-12T08:23:29;21.50;99.90
10660;DHT22;5378;53.206;13.316;2022-09-12T08:26:16;22.00;99.90
10660;DHT22;5378;53.206;13.316;2022-09-12T08:29:03;22.10;99.90
10660;DHT22;5378;53.206;13.316;2022-09-12T08:31:52;21.80;99.90
10660;DHT22;5378;53.206;13.316;2022-09-12T08:34:41;22.00;99.90
10660;DHT22;5378;53.206;13.316;2022-09-12T08:37:29;23.60;99.90
10660;DHT22;5378;53.206;13.316;2022-09-12T08:40:16;25.20;99.90
10660;DHT22;5378;53.206;13.316;2022-09-12T08:43:09;26.30;99.90
10660;DHT22;5378;53.206;13.316;2022-09-12T08:46:05;27.30;99.90
10660;DHT22;5378;53.206;13.316;2022-09-12T08:48:55;27.20;99.90
10660;DHT22;5378;53.206;13.316;2022-09-12T08:51:45;27.30;99.90
10660;DHT22;5378;53.206;13.316;2022-09-12T08:54:32;28.00;99.90
10660;DHT22;5378;53.206;13.316;2022-09-12T08:57:19;28.60;99.90
10660;DHT22;5378;53.206;13.316;2022-09-12T09:00:11;29.00;99.90
10660;DHT22;5378;53.206;13.316;2022-09-12T09:03:16;27.80;99.90
10660;DHT22;5378;53.206;13.316;2022-09-12T09:06:15;26.40;99.90
10660;DHT22;5378;53.206;13.316;2022-09-12T09:09:10;26.50;99.90
10660;DHT22;5378;53.206;13.316;2022-09-12T09:12:04;27.20;99.90
10660;DHT22;5378;53.206;13.316;2022-09-12T09:15:03;27.70;99.90
10660;DHT22;5378;53.206;13.316;2022-09-12T09:18:00;27.60;99.90
10660;DHT22;5378;53.206;13.316;2022-09-12T09:20:50;26.60;99.90
10660;DHT22;5378;53.206;13.316;2022-09-12T09:23:41;25.20;99.90
10660;DHT22;5378;53.206;13.316;2022-09-12T09:26:39;24.80;99.90
10660;DHT22;5378;53.206;13.316;2022-09-12T09:29:31;24.50;99.90
10660;DHT22;5378;53.206;13.316;2022-09-12T09:32:26;24.30;99.90
10660;DHT22;5378;53.206;13.316;2022-09-12T09:35:16;24.30;99.90
10660;DHT22;5378;53.206;13.316;2022-09-12T09:38:17;24.60;99.90
10660;DHT22;5378;53.206;13.316;2022-09-12T09:41:27;24.50;99.90
10660;DHT22;5378;53.206;13.316;2022-09-12T09:44:16;24.10;99.90
10660;DHT22;5378;53.206;13.316;2022-09-12T09:47:04;23.50;99.90
10660;DHT22;5378;53.206;13.316;2022-09-12T09:49:52;23.00;99.90
10660;DHT22;5378;53.206;13.316;2022-09-12T09:52:39;22.40;99.90
10660;DHT22;5378;53.206;13.316;2022-09-12T09:55:31;22.00;99.90
10660;DHT22;5378;53.206;13.316;2022-09-12T09:58:31;21.60;99.90
10660;DHT22;5378;53.206;13.316;2022-09-12T10:01:19;21.30;99.90
10660;DHT22;5378;53.206;13.316;2022-09-12T10:04:16;20.90;99.90
10660;DHT22;5378;53.206;13.316;2022-09-12T10:07:05;20.70;99.90
10660;DHT22;5378;53.206;13.316;2022-09-12T10:10:06;20.50;99.90
10660;DHT22;5378;53.206;13.316;2022-09-12T10:13:08;20.40;99.90
10660;DHT22;5378;53.206;13.316;2022-09-12T10:15:59;20.30;99.90
10660;DHT22;5378;53.206;13.316;2022-09-12T10:18:47;20.20;99.90
10660;DHT22;5378;53.206;13.316;2022-09-12T10:21:38;20.10;99.90
10660;DHT22;5378;53.206;13.316;2022-09-12T10:24:30;20.20;99.90
10660;DHT22;5378;53.206;13.316;2022-09-12T10:27:20;20.20;99.90
10660;DHT22;5378;53.206;13.316;2022-09-12T10:30:16;20.10;99.90
10660;DHT22;5378;53.206;13.316;2022-09-12T10:33:07;20.10;99.90
10660;DHT22;5378;53.206;13.316;2022-09-12T10:35:57;20.00;99.90
10660;DHT22;5378;53.206;13.316;2022-09-12T10:38:49;20.00;99.90
10660;DHT22;5378;53.206;13.316;2022-09-12T10:41:38;20.10;99.90
10660;DHT22;5378;53.206;13.316;2022-09-12T10:44:27;20.10;99.90
10660;DHT22;5378;53.206;13.316;2022-09-12T10:47:19;20.10;99.90
10660;DHT22;5378;53.206;13.316;2022-09-12T10:50:21;20.00;99.90
10660;DHT22;5378;53.206;13.316;2022-09-12T10:53:15;19.90;99.90
10660;DHT22;5378;53.206;13.316;2022-09-12T10:56:08;19.90;99.90
10660;DHT22;5378;53.206;13.316;2022-09-12T10:59:06;20.00;99.90
10660;DHT22;5378;53.206;13.316;2022-09-12T11:01:59;20.00;99.90
10660;DHT22;5378;53.206;13.316;2022-09-12T11:04:54;20.10;99.90
10660;DHT22;5378;53.206;13.316;2022-09-12T11:07:46;19.90;99.90
10660;DHT22;5378;53.206;13.316;2022-09-12T11:10:42;19.90;99.90
10660;DHT22;5378;53.206;13.316;2022-09-12T11:13:47;19.90;99.90
10660;DHT22;5378;53.206;13.316;2022-09-12T11:16:41;19.90;99.90
10660;DHT22;5378;53.206;13.316;2022-09-12T11:20:02;20.00;99.90
10660;DHT22;5378;53.206;13.316;2022-09-12T11:23:24;20.00;99.90
10660;DHT22;5378;53.206;13.316;2022-09-12T11:26:24;20.10;99.90
10660;DHT22;5378;53.206;13.316;2022-09-12T11:29:20;20.20;99.90
10660;DHT22;5378;53.206;13.316;2022-09-12T11:32:37;20.20;99.90
10660;DHT22;5378;53.206;13.316;2022-09-12T11:35:28;20.20;99.90
10660;DHT22;5378;53.206;13.316;2022-09-12T11:38:28;20.30;99.90
10660;DHT22;5378;53.206;13.316;2022-09-12T11:41:24;20.30;99.90
10660;DHT22;5378;53.206;13.316;2022-09-12T11:44:19;20.30;99.90
10660;DHT22;5378;53.206;13.316;2022-09-12T11:47:11;20.30;99.90
10660;DHT22;5378;53.206;13.316;2022-09-12T11:50:00;20.20;99.90
10660;DHT22;5378;53.206;13.316;2022-09-12T11:52:50;20.20;99.90
10660;DHT22;5378;53.206;13.316;2022-09-12T11:55:46;20.20;99.90
10660;DHT22;5378;53.206;13.316;2022-09-12T11:58:36;20.30;99.90
10660;DHT22;5378;53.206;13.316;2022-09-12T12:01:29;20.30;99.90
10660;DHT22;5378;53.206;13.316;2022-09-12T12:04:23;20.50;99.90
10660;DHT22;5378;53.206;13.316;2022-09-12T12:07:13;20.50;99.90
10660;DHT22;5378;53.206;13.316;2022-09-12T12:10:01;20.60;99.90
10660;DHT22;5378;53.206;13.316;2022-09-12T12:12:50;20.50;99.90
10660;DHT22;5378;53.206;13.316;2022-09-12T12:15:39;20.40;99.90
10660;DHT22;5378;53.206;13.316;2022-09-12T12:18:27;20.40;99.90
10660;DHT22;5378;53.206;13.316;2022-09-12T12:21:20;20.30;99.90
10660;DHT22;5378;53.206;13.316;2022-09-12T12:24:18;20.30;99.90
10660;DHT22;5378;53.206;13.316;2022-09-12T12:27:22;20.30;99.90
10660;DHT22;5378;53.206;13.316;2022-09-12T12:34:01;20.20;99.90
10660;DHT22;5378;53.206;13.316;2022-09-12T12:36:49;20.20;99.90
10660;DHT22;5378;53.206;13.316;2022-09-12T12:39:57;20.30;99.90
10660;DHT22;5378;53.206;13.316;2022-09-12T12:43:08;20.30;99.90
10660;DHT22;5378;53.206;13.316;2022-09-12T12:46:15;20.30;99.90
10660;DHT22;5378;53.206;13.316;2022-09-12T12:49:08;20.30;99.90
10660;DHT22;5378;53.206;13.316;2022-09-12T12:51:58;20.30;99.90
10660;DHT22;5378;53.206;13.316;2022-09-12T12:54:50;20.30;99.90
10660;DHT22;5378;53.206;13.316;2022-09-12T12:57:48;20.50;99.90
10660;DHT22;5378;53.206;13.316;2022-09-12T13:00:38;20.40;99.90
10660;DHT22;5378;53.206;13.316;2022-09-12T13:03:28;20.50;99.90
10660;DHT22;5378;53.206;13.316;2022-09-12T13:06:28;20.60;99.90
10660;DHT22;5378;53.206;13.316;2022-09-12T13:09:20;20.70;99.90
10660;DHT22;5378;53.206;13.316;2022-09-12T13:12:11;20.70;99.90
10660;DHT22;5378;53.206;13.316;2022-09-12T13:18:40;21.10;99.90
10660;DHT22;5378;53.206;13.316;2022-09-12T13:21:28;21.00;99.90
10660;DHT22;5378;53.206;13.316;2022-09-12T13:24:16;21.10;99.90
10660;DHT22;5378;53.206;13.316;2022-09-12T13:27:15;21.20;99.90
10660;DHT22;5378;53.206;13.316;2022-09-12T13:30:07;21.40;99.90
10660;DHT22;5378;53.206;13.316;2022-09-12T13:32:56;21.40;99.90
10660;DHT22;5378;53.206;13.316;2022-09-12T13:36:09;21.40;99.90
10660;DHT22;5378;53.206;13.316;2022-09-12T13:39:12;21.40;99.90
10660;DHT22;5378;53.206;13.316;2022-09-12T13:45:23;21.60;99.90
10660;DHT22;5378;53.206;13.316;2022-09-12T13:48:14;21.60;99.90
10660;DHT22;5378;53.206;13.316;2022-09-12T13:51:04;21.70;99.90
10660;DHT22;5378;53.206;13.316;2022-09-12T13:53:53;21.70;99.90
10660;DHT22;5378;53.206;13.316;2022-09-12T13:56:46;21.80;99.90
10660;DHT22;5378;53.206;13.316;2022-09-12T13:59:40;21.90;99.90
10660;DHT22;5378;53.206;13.316;2022-09-12T14:02:28;21.80;99.90
10660;DHT22;5378;53.206;13.316;2022-09-12T14:05:20;21.70;99.90
10660;DHT22;5378;53.206;13.316;2022-09-12T14:08:10;21.60;99.90
10660;DHT22;5378;53.206;13.316;2022-09-12T14:10:59;21.60;99.90
10660;DHT22;5378;53.206;13.316;2022-09-12T14:13:46;21.50;99.90
10660;DHT22;5378;53.206;13.316;2022-09-12T14:16:37;21.40;99.90
10660;DHT22;5378;53.206;13.316;2022-09-12T14:19:26;21.30;99.90
10660;DHT22;5378;53.206;13.316;2022-09-12T14:22:14;21.30;99.90
10660;DHT22;5378;53.206;13.316;2022-09-12T14:25:05;21.20;99.90
10660;DHT22;5378;53.206;13.316;2022-09-12T14:27:56;21.10;99.90
10660;DHT22;5378;53.206;13.316;2022-09-12T14:30:57;21.10;99.90
10660;DHT22;5378;53.206;13.316;2022-09-12T14:33:48;21.00;99.90
10660;DHT22;5378;53.206;13.316;2022-09-12T14:36:40;20.90;99.90
10660;DHT22;5378;53.206;13.316;2022-09-12T14:39:31;20.90;99.90
10660;DHT22;5378;53.206;13.316;2022-09-12T14:42:29;20.90;99.90
10660;DHT22;5378;53.206;13.316;2022-09-12T14:45:21;20.90;99.90
10660;DHT22;5378;53.206;13.316;2022-09-12T14:48:13;20.90;99.90
10660;DHT22;5378;53.206;13.316;2022-09-12T14:51:04;20.90;99.90
10660;DHT22;5378;53.206;13.316;2022-09-12T14:53:51;20.80;99.90
10660;DHT22;5378;53.206;13.316;2022-09-12T14:56:40;20.80;99.90
10660;DHT22;5378;53.206;13.316;2022-09-12T14:59:35;20.80;99.90
10660;DHT22;5378;53.206;13.316;2022-09-12T15:02:26;20.80;99.90
10660;DHT22;5378;53.206;13.316;2022-09-12T15:05:17;20.90;99.90
10660;DHT22;5378;53.206;13.316;2022-09-12T15:08:13;20.80;99.90
10660;DHT22;5378;53.206;13.316;2022-09-12T15:11:01;20.80;99.90
10660;DHT22;5378;53.206;13.316;2022-09-12T15:13:48;20.80;99.90
10660;DHT22;5378;53.206;13.316;2022-09-12T15:16:36;20.80;99.90
10660;DHT22;5378;53.206;13.316;2022-09-12T15:19:23;20.70;99.90
10660;DHT22;5378;53.206;13.316;2022-09-12T15:22:12;20.70;99.90
10660;DHT22;5378;53.206;13.316;2022-09-12T15:24:59;20.80;99.90
10660;DHT22;5378;53.206;13.316;2022-09-12T15:27:47;20.70;99.90
10660;DHT22;5378;53.206;13.316;2022-09-12T15:30:37;20.70;99.90
10660;DHT22;5378;53.206;13.316;2022-09-12T15:33:25;20.70;99.90
10660;DHT22;5378;53.206;13.316;2022-09-12T15:36:14;20.50;99.90
10660;DHT22;5378;53.206;13.316;2022-09-12T15:39:02;20.50;99.90
10660;DHT22;5378;53.206;13.316;2022-09-12T15:41:49;20.40;99.90
10660;DHT22;5378;53.206;13.316;2022-09-12T15:44:37;20.40;99.90
10660;DHT22;5378;53.206;13.316;2022-09-12T15:47:24;20.40;99.90
10660;DHT22;5378;53.206;13.316;2022-09-12T15:50:13;20.30;99.90
10660;DHT22;5378;53.206;13.316;2022-09-12T15:53:00;20.30;99.90
10660;DHT22;5378;53.206;13.316;2022-09-12T15:55:47;20.20;99.90
10660;DHT22;5378;53.206;13.316;2022-09-12T15:58:35;20.10;99.90
10660;DHT22;5378;53.206;13.316;2022-09-12T16:01:27;20.10;99.90
10660;DHT22;5378;53.206;13.316;2022-09-12T16:04:20;20.00;99.90
10660;DHT22;5378;53.206;13.316;2022-09-12T16:07:09;19.90;99.90
10660;DHT22;5378;53.206;13.316;2022-09-12T16:09:56;19.80;99.90
10660;DHT22;5378;53.206;13.316;2022-09-12T16:12:44;19.70;99.90
10660;DHT22;5378;53.206;13.316;2022-09-12T16:15:31;19.70;99.90
10660;DHT22;5378;53.206;13.316;2022-09-12T16:18:18;19.60;99.90
10660;DHT22;5378;53.206;13.316;2022-09-12T16:21:05;19.50;99.90
10660;DHT22;5378;53.206;13.316;2022-09-12T16:23:56;19.40;99.90
10660;DHT22;5378;53.206;13.316;2022-09-12T16:26:43;19.30;99.90
10660;DHT22;5378;53.206;13.316;2022-09-12T16:29:30;19.30;99.90
10660;DHT22;5378;53.206;13.316;2022-09-12T16:32:17;19.30;99.90
10660;DHT22;5378;53.206;13.316;2022-09-12T16:35:06;19.20;99.90
10660;DHT22;5378;53.206;13.316;2022-09-12T16:37:53;19.20;99.90
10660;DHT22;5378;53.206;13.316;2022-09-12T16:40:41;19.20;99.90
10660;DHT22;5378;53.206;13.316;2022-09-12T16:43:29;19.10;99.90
10660;DHT22;5378;53.206;13.316;2022-09-12T16:46:18;19.10;99.90
10660;DHT22;5378;53.206;13.316;2022-09-12T16:49:06;19.00;99.90
10660;DHT22;5378;53.206;13.316;2022-09-12T16:51:53;18.90;99.90
10660;DHT22;5378;53.206;13.316;2022-09-12T16:54:40;18.90;99.90
10660;DHT22;5378;53.206;13.316;2022-09-12T16:57:29;18.80;99.90
10660;DHT22;5378;53.206;13.316;2022-09-12T17:00:16;18.80;99.90
10660;DHT22;5378;53.206;13.316;2022-09-12T17:03:03;18.70;99.90
10660;DHT22;5378;53.206;13.316;2022-09-12T17:05:56;18.70;99.90
10660;DHT22;5378;53.206;13.316;2022-09-12T17:08:46;18.50;99.90
10660;DHT22;5378;53.206;13.316;2022-09-12T17:11:35;18.50;99.90
10660;DHT22;5378;53.206;13.316;2022-09-12T17:14:24;18.40;99.90
10660;DHT22;5378;53.206;13.316;2022-09-12T17:17:11;18.30;99.90
10660;DHT22;5378;53.206;13.316;2022-09-12T17:19:58;18.20;99.90
10660;DHT22;5378;53.206;13.316;2022-09-12T17:22:46;18.10;99.90
10660;DHT22;5378;53.206;13.316;2022-09-12T17:25:33;18.10;99.90
10660;DHT22;5378;53.206;13.316;2022-09-12T17:28:20;17.90;99.90
10660;DHT22;5378;53.206;13.316;2022-09-12T17:31:10;17.90;99.90
10660;DHT22;5378;53.206;13.316;2022-09-12T17:33:58;17.80;99.90
10660;DHT22;5378;53.206;13.316;2022-09-12T17:36:45;17.70;99.90
10660;DHT22;5378;53.206;13.316;2022-09-12T17:39:33;17.70;99.90
10660;DHT22;5378;53.206;13.316;2022-09-12T17:42:20;17.70;99.90
10660;DHT22;5378;53.206;13.316;2022-09-12T17:45:09;17.60;99.90
10660;DHT22;5378;53.206;13.316;2022-09-12T17:48:01;17.50;99.90
10660;DHT22;5378;53.206;13.316;2022-09-12T17:50:49;17.50;99.90
10660;DHT22;5378;53.206;13.316;2022-09-12T17:53:37;17.40;99.90
10660;DHT22;5378;53.206;13.316;2022-09-12T17:56:25;17.30;99.90
10660;DHT22;5378;53.206;13.316;2022-09-12T17:59:14;17.20;99.90
10660;DHT22;5378;53.206;13.316;2022-09-12T18:02:01;17.20;99.90
10660;DHT22;5378;53.206;13.316;2022-09-12T18:05:02;17.10;99.90
10660;DHT22;5378;53.206;13.316;2022-09-12T18:07:51;17.00;99.90
10660;DHT22;5378;53.206;13.316;2022-09-12T18:10:38;16.90;99.90
10660;DHT22;5378;53.206;13.316;2022-09-12T18:13:26;16.70;99.90